sensor_id;sensor_type;location;lat;lon;timestamp;P1;durP1;ratioP1;P2;durP2;ratioP2
14892;SDS011;7538;53.626;9.906;2023-07-30T00:01:15;9.63;;;8.20;;
14892;SDS011;7538;53.626;9.906;2023-07-30T00:03:42;8.20;;;6.90;;
14892;SDS011;7538;53.626;9.906;2023-07-30T00:06:10;8.27;;;7.35;;
14892;SDS011;7538;53.626;9.906;2023-07-30T00:08:37;9.13;;;7.28;;
14892;SDS011;7538;53.626;9.906;2023-07-30T00:11:04;8.32;;;6.85;;
14892;SDS011;7538;53.626;9.906;2023-07-30T00:13:30;6.97;;;6.22;;
14892;SDS011;7538;53.626;9.906;2023-07-30T00:15:57;7.03;;;6.30;;
14892;SDS011;7538;53.626;9.906;2023-07-30T00:18:24;9.38;;;6.22;;
14892;SDS011;7538;53.626;9.906;2023-07-30T00:20:51;6.57;;;5.97;;
14892;SDS011;7538;53.626;9.906;2023-07-30T00:23:19;6.85;;;6.00;;
14892;SDS011;7538;53.626;9.906;2023-07-30T00:25:46;5.72;;;5.20;;
14892;SDS011;7538;53.626;9.906;2023-07-30T00:28:13;6.03;;;5.40;;
14892;SDS011;7538;53.626;9.906;2023-07-30T00:30:39;6.90;;;5.60;;
14892;SDS011;7538;53.626;9.906;2023-07-30T00:33:06;6.57;;;5.85;;
14892;SDS011;7538;53.626;9.906;2023-07-30T00:35:33;6.45;;;5.00;;
14892;SDS011;7538;53.626;9.906;2023-07-30T00:38:00;5.25;;;4.75;;
14892;SDS011;7538;53.626;9.906;2023-07-30T00:40:28;5.53;;;5.03;;
14892;SDS011;7538;53.626;9.906;2023-07-30T00:42:55;5.80;;;5.28;;
14892;SDS011;7538;53.626;9.906;2023-07-30T00:45:21;7.03;;;5.50;;
14892;SDS011;7538;53.626;9.906;2023-07-30T00:47:48;6.68;;;5.32;;
14892;SDS011;7538;53.626;9.906;2023-07-30T00:50:15;7.50;;;5.72;;
14892;SDS011;7538;53.626;9.906;2023-07-30T00:52:43;6.03;;;4.90;;
14892;SDS011;7538;53.626;9.906;2023-07-30T00:55:10;5.80;;;5.18;;
14892;SDS011;7538;53.626;9.906;2023-07-30T00:57:38;6.65;;;5.93;;
14892;SDS011;7538;53.626;9.906;2023-07-30T01:00:07;5.38;;;4.82;;
14892;SDS011;7538;53.626;9.906;2023-07-30T01:02:35;6.47;;;5.50;;
14892;SDS011;7538;53.626;9.906;2023-07-30T01:05:02;5.80;;;5.20;;
14892;SDS011;7538;53.626;9.906;2023-07-30T01:07:29;5.60;;;4.82;;
14892;SDS011;7538;53.626;9.906;2023-07-30T01:09:57;5.22;;;4.78;;
14892;SDS011;7538;53.626;9.906;2023-07-30T01:12:25;5.47;;;4.70;;
14892;SDS011;7538;53.626;9.906;2023-07-30T01:14:55;6.18;;;4.93;;
14892;SDS011;7538;53.626;9.906;2023-07-30T01:17:23;5.13;;;4.70;;
14892;SDS011;7538;53.626;9.906;2023-07-30T01:19:50;5.00;;;4.60;;
14892;SDS011;7538;53.626;9.906;2023-07-30T01:22:22;4.55;;;4.15;;
14892;SDS011;7538;53.626;9.906;2023-07-30T01:24:49;4.47;;;4.07;;
14892;SDS011;7538;53.626;9.906;2023-07-30T01:27:16;5.05;;;4.43;;
14892;SDS011;7538;53.626;9.906;2023-07-30T01:29:49;5.10;;;4.70;;
14892;SDS011;7538;53.626;9.906;2023-07-30T01:32:19;5.65;;;5.10;;
14892;SDS011;7538;53.626;9.906;2023-07-30T01:34:50;5.97;;;5.47;;
14892;SDS011;7538;53.626;9.906;2023-07-30T01:37:18;5.07;;;4.68;;
14892;SDS011;7538;53.626;9.906;2023-07-30T01:39:48;5.03;;;4.47;;
14892;SDS011;7538;53.626;9.906;2023-07-30T01:42:15;5.85;;;5.35;;
14892;SDS011;7538;53.626;9.906;2023-07-30T01:44:42;5.93;;;5.43;;
14892;SDS011;7538;53.626;9.906;2023-07-30T01:47:09;5.45;;;4.95;;
14892;SDS011;7538;53.626;9.906;2023-07-30T01:49:36;6.43;;;5.82;;
14892;SDS011;7538;53.626;9.906;2023-07-30T01:52:03;6.35;;;5.85;;
14892;SDS011;7538;53.626;9.906;2023-07-30T01:54:30;7.28;;;5.90;;
14892;SDS011;7538;53.626;9.906;2023-07-30T01:56:59;6.15;;;5.50;;
14892;SDS011;7538;53.626;9.906;2023-07-30T01:59:27;6.75;;;6.03;;
14892;SDS011;7538;53.626;9.906;2023-07-30T02:02:03;7.03;;;6.43;;
14892;SDS011;7538;53.626;9.906;2023-07-30T02:04:30;6.68;;;5.97;;
14892;SDS011;7538;53.626;9.906;2023-07-30T02:06:57;6.97;;;6.28;;
14892;SDS011;7538;53.626;9.906;2023-07-30T02:09:23;8.05;;;6.55;;
14892;SDS011;7538;53.626;9.906;2023-07-30T02:11:50;7.35;;;6.63;;
14892;SDS011;7538;53.626;9.906;2023-07-30T02:14:18;7.97;;;7.13;;
14892;SDS011;7538;53.626;9.906;2023-07-30T02:16:45;8.40;;;6.95;;
14892;SDS011;7538;53.626;9.906;2023-07-30T02:19:12;8.60;;;7.70;;
14892;SDS011;7538;53.626;9.906;2023-07-30T02:21:39;7.88;;;7.03;;
14892;SDS011;7538;53.626;9.906;2023-07-30T02:24:07;8.80;;;8.00;;
14892;SDS011;7538;53.626;9.906;2023-07-30T02:26:36;8.95;;;8.05;;
14892;SDS011;7538;53.626;9.906;2023-07-30T02:29:03;9.65;;;8.57;;
14892;SDS011;7538;53.626;9.906;2023-07-30T02:31:31;8.82;;;7.80;;
14892;SDS011;7538;53.626;9.906;2023-07-30T02:33:58;10.35;;;9.23;;
14892;SDS011;7538;53.626;9.906;2023-07-30T02:36:25;11.82;;;9.50;;
14892;SDS011;7538;53.626;9.906;2023-07-30T02:38:52;10.00;;;8.63;;
14892;SDS011;7538;53.626;9.906;2023-07-30T02:41:19;10.02;;;9.02;;
14892;SDS011;7538;53.626;9.906;2023-07-30T02:43:45;10.75;;;9.65;;
14892;SDS011;7538;53.626;9.906;2023-07-30T02:46:12;11.15;;;10.05;;
14892;SDS011;7538;53.626;9.906;2023-07-30T02:48:42;12.15;;;9.80;;
14892;SDS011;7538;53.626;9.906;2023-07-30T02:51:09;11.50;;;10.30;;
14892;SDS011;7538;53.626;9.906;2023-07-30T02:53:35;13.65;;;10.82;;
14892;SDS011;7538;53.626;9.906;2023-07-30T02:56:02;13.23;;;11.82;;
14892;SDS011;7538;53.626;9.906;2023-07-30T02:58:29;11.93;;;10.55;;
14892;SDS011;7538;53.626;9.906;2023-07-30T03:01:04;11.45;;;10.23;;
14892;SDS011;7538;53.626;9.906;2023-07-30T03:03:31;12.70;;;11.05;;
14892;SDS011;7538;53.626;9.906;2023-07-30T03:06:00;12.60;;;11.30;;
14892;SDS011;7538;53.626;9.906;2023-07-30T03:08:29;13.18;;;11.75;;
14892;SDS011;7538;53.626;9.906;2023-07-30T03:10:57;13.60;;;11.55;;
14892;SDS011;7538;53.626;9.906;2023-07-30T03:13:24;13.02;;;11.75;;
14892;SDS011;7538;53.626;9.906;2023-07-30T03:15:51;14.23;;;12.55;;
14892;SDS011;7538;53.626;9.906;2023-07-30T03:18:18;16.23;;;13.00;;
14892;SDS011;7538;53.626;9.906;2023-07-30T03:20:44;15.43;;;12.82;;
14892;SDS011;7538;53.626;9.906;2023-07-30T03:23:12;17.25;;;13.05;;
14892;SDS011;7538;53.626;9.906;2023-07-30T03:25:39;13.48;;;12.15;;
14892;SDS011;7538;53.626;9.906;2023-07-30T03:28:06;15.02;;;12.63;;
14892;SDS011;7538;53.626;9.906;2023-07-30T03:30:33;16.52;;;14.20;;
14892;SDS011;7538;53.626;9.906;2023-07-30T03:32:59;15.30;;;12.68;;
14892;SDS011;7538;53.626;9.906;2023-07-30T03:35:26;16.38;;;13.98;;
14892;SDS011;7538;53.626;9.906;2023-07-30T03:37:53;14.63;;;13.13;;
14892;SDS011;7538;53.626;9.906;2023-07-30T03:40:21;16.02;;;13.90;;
14892;SDS011;7538;53.626;9.906;2023-07-30T03:42:48;14.05;;;12.27;;
14892;SDS011;7538;53.626;9.906;2023-07-30T03:45:15;14.20;;;11.65;;
14892;SDS011;7538;53.626;9.906;2023-07-30T03:47:42;14.20;;;12.30;;
14892;SDS011;7538;53.626;9.906;2023-07-30T03:50:09;14.60;;;12.07;;
14892;SDS011;7538;53.626;9.906;2023-07-30T03:52:36;14.63;;;12.02;;
14892;SDS011;7538;53.626;9.906;2023-07-30T03:55:03;12.95;;;11.38;;
14892;SDS011;7538;53.626;9.906;2023-07-30T03:57:31;15.90;;;12.63;;
14892;SDS011;7538;53.626;9.906;2023-07-30T03:59:59;14.38;;;12.75;;
14892;SDS011;7538;53.626;9.906;2023-07-30T04:02:26;15.77;;;13.45;;
14892;SDS011;7538;53.626;9.906;2023-07-30T04:04:53;14.32;;;11.90;;
14892;SDS011;7538;53.626;9.906;2023-07-30T04:07:19;17.98;;;12.82;;
14892;SDS011;7538;53.626;9.906;2023-07-30T04:09:46;14.63;;;12.43;;
14892;SDS011;7538;53.626;9.906;2023-07-30T04:12:13;17.23;;;13.63;;
14892;SDS011;7538;53.626;9.906;2023-07-30T04:14:41;16.65;;;13.32;;
14892;SDS011;7538;53.626;9.906;2023-07-30T04:17:08;16.42;;;13.10;;
14892;SDS011;7538;53.626;9.906;2023-07-30T04:22:10;16.55;;;13.52;;
14892;SDS011;7538;53.626;9.906;2023-07-30T04:24:36;16.42;;;13.30;;
14892;SDS011;7538;53.626;9.906;2023-07-30T04:27:03;14.30;;;12.80;;
14892;SDS011;7538;53.626;9.906;2023-07-30T04:29:30;16.45;;;12.63;;
14892;SDS011;7538;53.626;9.906;2023-07-30T04:31:58;15.20;;;12.98;;
14892;SDS011;7538;53.626;9.906;2023-07-30T04:34:25;18.25;;;13.40;;
14892;SDS011;7538;53.626;9.906;2023-07-30T04:36:52;13.57;;;12.07;;
14892;SDS011;7538;53.626;9.906;2023-07-30T04:39:19;15.93;;;12.80;;
14892;SDS011;7538;53.626;9.906;2023-07-30T04:41:45;14.60;;;11.55;;
14892;SDS011;7538;53.626;9.906;2023-07-30T04:44:12;13.02;;;10.85;;
14892;SDS011;7538;53.626;9.906;2023-07-30T04:46:39;13.77;;;11.40;;
14892;SDS011;7538;53.626;9.906;2023-07-30T04:49:07;14.65;;;11.00;;
14892;SDS011;7538;53.626;9.906;2023-07-30T04:51:34;14.73;;;11.00;;
14892;SDS011;7538;53.626;9.906;2023-07-30T04:54:13;12.90;;;10.52;;
14892;SDS011;7538;53.626;9.906;2023-07-30T04:56:40;11.10;;;9.98;;
14892;SDS011;7538;53.626;9.906;2023-07-30T04:59:07;12.15;;;9.05;;
14892;SDS011;7538;53.626;9.906;2023-07-30T05:01:34;14.75;;;9.88;;
14892;SDS011;7538;53.626;9.906;2023-07-30T05:04:01;12.10;;;7.80;;
14892;SDS011;7538;53.626;9.906;2023-07-30T05:06:29;10.02;;;8.13;;
14892;SDS011;7538;53.626;9.906;2023-07-30T05:08:55;9.18;;;8.15;;
14892;SDS011;7538;53.626;9.906;2023-07-30T05:11:22;9.45;;;7.35;;
14892;SDS011;7538;53.626;9.906;2023-07-30T05:13:49;8.57;;;7.03;;
14892;SDS011;7538;53.626;9.906;2023-07-30T05:16:16;9.25;;;7.13;;
14892;SDS011;7538;53.626;9.906;2023-07-30T05:18:43;9.32;;;6.78;;
14892;SDS011;7538;53.626;9.906;2023-07-30T05:21:09;11.23;;;7.13;;
14892;SDS011;7538;53.626;9.906;2023-07-30T05:23:37;11.05;;;7.47;;
14892;SDS011;7538;53.626;9.906;2023-07-30T05:26:04;9.02;;;6.70;;
14892;SDS011;7538;53.626;9.906;2023-07-30T05:28:31;8.82;;;6.68;;
14892;SDS011;7538;53.626;9.906;2023-07-30T05:30:59;9.50;;;7.32;;
14892;SDS011;7538;53.626;9.906;2023-07-30T05:33:25;8.75;;;7.05;;
14892;SDS011;7538;53.626;9.906;2023-07-30T05:35:52;9.43;;;7.00;;
14892;SDS011;7538;53.626;9.906;2023-07-30T05:38:19;9.43;;;6.50;;
14892;SDS011;7538;53.626;9.906;2023-07-30T05:40:47;7.75;;;6.50;;
14892;SDS011;7538;53.626;9.906;2023-07-30T05:43:14;9.07;;;6.65;;
14892;SDS011;7538;53.626;9.906;2023-07-30T05:45:44;10.43;;;6.43;;
14892;SDS011;7538;53.626;9.906;2023-07-30T05:48:16;9.20;;;6.00;;
14892;SDS011;7538;53.626;9.906;2023-07-30T05:50:43;10.00;;;5.60;;
14892;SDS011;7538;53.626;9.906;2023-07-30T05:53:10;8.93;;;5.95;;
14892;SDS011;7538;53.626;9.906;2023-07-30T05:55:37;13.63;;;6.72;;
14892;SDS011;7538;53.626;9.906;2023-07-30T05:58:05;8.30;;;5.40;;
14892;SDS011;7538;53.626;9.906;2023-07-30T06:00:32;7.40;;;5.18;;
14892;SDS011;7538;53.626;9.906;2023-07-30T06:02:59;8.00;;;5.35;;
14892;SDS011;7538;53.626;9.906;2023-07-30T06:05:25;11.60;;;6.45;;
14892;SDS011;7538;53.626;9.906;2023-07-30T06:07:52;7.65;;;5.63;;
14892;SDS011;7538;53.626;9.906;2023-07-30T06:10:19;7.00;;;4.78;;
14892;SDS011;7538;53.626;9.906;2023-07-30T06:12:46;8.38;;;5.05;;
14892;SDS011;7538;53.626;9.906;2023-07-30T06:15:14;7.68;;;5.10;;
14892;SDS011;7538;53.626;9.906;2023-07-30T06:17:40;9.65;;;5.05;;
14892;SDS011;7538;53.626;9.906;2023-07-30T06:20:08;9.70;;;4.57;;
14892;SDS011;7538;53.626;9.906;2023-07-30T06:22:35;8.38;;;4.75;;
14892;SDS011;7538;53.626;9.906;2023-07-30T06:25:02;9.63;;;4.30;;
14892;SDS011;7538;53.626;9.906;2023-07-30T06:27:29;6.38;;;3.85;;
14892;SDS011;7538;53.626;9.906;2023-07-30T06:29:56;10.02;;;5.30;;
14892;SDS011;7538;53.626;9.906;2023-07-30T06:32:25;8.27;;;4.78;;
14892;SDS011;7538;53.626;9.906;2023-07-30T06:34:52;8.82;;;4.80;;
14892;SDS011;7538;53.626;9.906;2023-07-30T06:37:18;9.75;;;5.35;;
14892;SDS011;7538;53.626;9.906;2023-07-30T06:39:45;9.02;;;5.28;;
14892;SDS011;7538;53.626;9.906;2023-07-30T06:42:12;9.38;;;6.43;;
14892;SDS011;7538;53.626;9.906;2023-07-30T06:44:39;14.25;;;7.30;;
14892;SDS011;7538;53.626;9.906;2023-07-30T06:47:05;12.27;;;7.00;;
14892;SDS011;7538;53.626;9.906;2023-07-30T06:49:34;13.35;;;7.68;;
14892;SDS011;7538;53.626;9.906;2023-07-30T06:52:01;13.13;;;6.93;;
14892;SDS011;7538;53.626;9.906;2023-07-30T06:54:29;12.50;;;6.95;;
14892;SDS011;7538;53.626;9.906;2023-07-30T06:56:56;11.10;;;6.95;;
14892;SDS011;7538;53.626;9.906;2023-07-30T06:59:22;13.57;;;7.22;;
14892;SDS011;7538;53.626;9.906;2023-07-30T07:01:49;13.57;;;7.47;;
14892;SDS011;7538;53.626;9.906;2023-07-30T07:04:16;13.98;;;8.07;;
14892;SDS011;7538;53.626;9.906;2023-07-30T07:06:44;17.55;;;8.32;;
14892;SDS011;7538;53.626;9.906;2023-07-30T07:09:11;16.45;;;8.13;;
14892;SDS011;7538;53.626;9.906;2023-07-30T07:11:38;11.13;;;6.88;;
14892;SDS011;7538;53.626;9.906;2023-07-30T07:14:04;13.18;;;7.88;;
14892;SDS011;7538;53.626;9.906;2023-07-30T07:16:31;14.93;;;8.88;;
14892;SDS011;7538;53.626;9.906;2023-07-30T07:18:58;20.63;;;9.10;;
14892;SDS011;7538;53.626;9.906;2023-07-30T07:21:25;15.48;;;8.65;;
14892;SDS011;7538;53.626;9.906;2023-07-30T07:23:53;16.50;;;9.00;;
14892;SDS011;7538;53.626;9.906;2023-07-30T07:26:20;14.27;;;8.50;;
14892;SDS011;7538;53.626;9.906;2023-07-30T07:28:47;13.05;;;7.22;;
14892;SDS011;7538;53.626;9.906;2023-07-30T07:31:14;11.32;;;7.32;;
14892;SDS011;7538;53.626;9.906;2023-07-30T07:33:40;17.65;;;7.90;;
14892;SDS011;7538;53.626;9.906;2023-07-30T07:36:07;14.93;;;7.40;;
14892;SDS011;7538;53.626;9.906;2023-07-30T07:38:34;15.32;;;8.65;;
14892;SDS011;7538;53.626;9.906;2023-07-30T07:41:02;16.70;;;8.32;;
14892;SDS011;7538;53.626;9.906;2023-07-30T07:43:29;11.70;;;7.85;;
14892;SDS011;7538;53.626;9.906;2023-07-30T07:45:56;17.20;;;8.25;;
14892;SDS011;7538;53.626;9.906;2023-07-30T07:48:23;13.27;;;7.35;;
14892;SDS011;7538;53.626;9.906;2023-07-30T07:50:50;12.55;;;7.60;;
14892;SDS011;7538;53.626;9.906;2023-07-30T07:53:17;14.25;;;6.97;;
14892;SDS011;7538;53.626;9.906;2023-07-30T07:55:43;13.90;;;5.65;;
14892;SDS011;7538;53.626;9.906;2023-07-30T07:58:11;13.02;;;4.93;;
14892;SDS011;7538;53.626;9.906;2023-07-30T08:00:38;9.35;;;4.80;;
14892;SDS011;7538;53.626;9.906;2023-07-30T08:03:05;10.15;;;4.53;;
14892;SDS011;7538;53.626;9.906;2023-07-30T08:05:32;13.02;;;5.30;;
14892;SDS011;7538;53.626;9.906;2023-07-30T08:07:58;10.45;;;5.75;;
14892;SDS011;7538;53.626;9.906;2023-07-30T08:10:25;13.82;;;5.75;;
14892;SDS011;7538;53.626;9.906;2023-07-30T08:12:52;10.85;;;5.22;;
14892;SDS011;7538;53.626;9.906;2023-07-30T08:15:20;9.90;;;4.80;;
14892;SDS011;7538;53.626;9.906;2023-07-30T08:17:47;10.30;;;5.10;;
14892;SDS011;7538;53.626;9.906;2023-07-30T08:20:14;8.95;;;4.80;;
14892;SDS011;7538;53.626;9.906;2023-07-30T08:22:41;12.00;;;5.57;;
14892;SDS011;7538;53.626;9.906;2023-07-30T08:25:08;10.52;;;5.47;;
14892;SDS011;7538;53.626;9.906;2023-07-30T08:27:35;10.13;;;5.90;;
14892;SDS011;7538;53.626;9.906;2023-07-30T08:30:01;7.95;;;4.53;;
14892;SDS011;7538;53.626;9.906;2023-07-30T08:32:30;11.50;;;5.47;;
14892;SDS011;7538;53.626;9.906;2023-07-30T08:34:59;9.48;;;4.70;;
14892;SDS011;7538;53.626;9.906;2023-07-30T08:37:25;10.38;;;5.75;;
14892;SDS011;7538;53.626;9.906;2023-07-30T08:39:52;9.55;;;5.22;;
14892;SDS011;7538;53.626;9.906;2023-07-30T08:42:19;13.85;;;5.55;;
14892;SDS011;7538;53.626;9.906;2023-07-30T08:44:46;11.27;;;5.72;;
14892;SDS011;7538;53.626;9.906;2023-07-30T08:47:12;8.88;;;4.43;;
14892;SDS011;7538;53.626;9.906;2023-07-30T08:49:41;11.07;;;4.57;;
14892;SDS011;7538;53.626;9.906;2023-07-30T08:52:08;10.30;;;4.80;;
14892;SDS011;7538;53.626;9.906;2023-07-30T08:54:36;14.27;;;5.35;;
14892;SDS011;7538;53.626;9.906;2023-07-30T08:57:04;9.25;;;4.97;;
14892;SDS011;7538;53.626;9.906;2023-07-30T08:59:33;7.30;;;4.15;;
14892;SDS011;7538;53.626;9.906;2023-07-30T09:02:03;13.57;;;5.47;;
14892;SDS011;7538;53.626;9.906;2023-07-30T09:04:34;10.00;;;4.82;;
14892;SDS011;7538;53.626;9.906;2023-07-30T09:07:05;15.45;;;4.53;;
14892;SDS011;7538;53.626;9.906;2023-07-30T09:09:34;8.48;;;4.60;;
14892;SDS011;7538;53.626;9.906;2023-07-30T09:12:03;8.52;;;4.15;;
14892;SDS011;7538;53.626;9.906;2023-07-30T09:14:30;11.13;;;4.90;;
14892;SDS011;7538;53.626;9.906;2023-07-30T09:16:57;9.13;;;3.80;;
14892;SDS011;7538;53.626;9.906;2023-07-30T09:19:24;8.82;;;3.95;;
14892;SDS011;7538;53.626;9.906;2023-07-30T09:21:51;12.65;;;4.43;;
14892;SDS011;7538;53.626;9.906;2023-07-30T09:24:21;13.07;;;4.50;;
14892;SDS011;7538;53.626;9.906;2023-07-30T09:26:48;8.73;;;3.95;;
14892;SDS011;7538;53.626;9.906;2023-07-30T09:29:15;7.55;;;3.50;;
14892;SDS011;7538;53.626;9.906;2023-07-30T09:31:48;6.03;;;3.65;;
14892;SDS011;7538;53.626;9.906;2023-07-30T09:34:19;12.68;;;4.72;;
14892;SDS011;7538;53.626;9.906;2023-07-30T09:36:46;7.57;;;4.32;;
14892;SDS011;7538;53.626;9.906;2023-07-30T09:39:14;9.95;;;3.75;;
14892;SDS011;7538;53.626;9.906;2023-07-30T09:41:43;11.70;;;4.35;;
14892;SDS011;7538;53.626;9.906;2023-07-30T09:44:10;13.40;;;4.60;;
14892;SDS011;7538;53.626;9.906;2023-07-30T09:46:41;8.88;;;4.13;;
14892;SDS011;7538;53.626;9.906;2023-07-30T09:49:08;10.82;;;4.25;;
14892;SDS011;7538;53.626;9.906;2023-07-30T09:51:36;9.00;;;4.47;;
14892;SDS011;7538;53.626;9.906;2023-07-30T09:54:03;11.27;;;4.72;;
14892;SDS011;7538;53.626;9.906;2023-07-30T09:56:31;12.38;;;4.38;;
14892;SDS011;7538;53.626;9.906;2023-07-30T09:58:59;11.55;;;4.68;;
14892;SDS011;7538;53.626;9.906;2023-07-30T10:04:48;10.07;;;4.90;;
14892;SDS011;7538;53.626;9.906;2023-07-30T10:07:52;8.60;;;4.80;;
14892;SDS011;7538;53.626;9.906;2023-07-30T10:10:40;7.80;;;3.70;;
14892;SDS011;7538;53.626;9.906;2023-07-30T10:13:09;8.00;;;4.53;;
14892;SDS011;7538;53.626;9.906;2023-07-30T10:15:39;9.45;;;4.13;;
14892;SDS011;7538;53.626;9.906;2023-07-30T10:18:06;6.95;;;4.00;;
14892;SDS011;7538;53.626;9.906;2023-07-30T10:20:33;9.35;;;4.25;;
14892;SDS011;7538;53.626;9.906;2023-07-30T10:23:01;8.13;;;3.85;;
14892;SDS011;7538;53.626;9.906;2023-07-30T10:25:30;8.80;;;3.88;;
14892;SDS011;7538;53.626;9.906;2023-07-30T10:28:09;8.27;;;4.70;;
14892;SDS011;7538;53.626;9.906;2023-07-30T10:30:56;7.50;;;4.25;;
14892;SDS011;7538;53.626;9.906;2023-07-30T10:36:42;8.55;;;4.53;;
14892;SDS011;7538;53.626;9.906;2023-07-30T10:39:11;8.88;;;4.25;;
14892;SDS011;7538;53.626;9.906;2023-07-30T10:41:39;8.15;;;3.83;;
14892;SDS011;7538;53.626;9.906;2023-07-30T10:44:06;11.23;;;4.75;;
14892;SDS011;7538;53.626;9.906;2023-07-30T10:46:34;9.07;;;4.18;;
14892;SDS011;7538;53.626;9.906;2023-07-30T10:49:03;6.30;;;3.72;;
14892;SDS011;7538;53.626;9.906;2023-07-30T10:51:31;7.55;;;3.72;;
14892;SDS011;7538;53.626;9.906;2023-07-30T10:53:59;9.38;;;3.35;;
14892;SDS011;7538;53.626;9.906;2023-07-30T10:56:25;6.28;;;3.28;;
14892;SDS011;7538;53.626;9.906;2023-07-30T10:58:53;9.02;;;3.72;;
14892;SDS011;7538;53.626;9.906;2023-07-30T11:01:20;10.45;;;3.10;;
14892;SDS011;7538;53.626;9.906;2023-07-30T11:03:51;7.97;;;2.95;;
14892;SDS011;7538;53.626;9.906;2023-07-30T11:06:21;6.40;;;2.55;;
14892;SDS011;7538;53.626;9.906;2023-07-30T11:08:48;7.88;;;2.50;;
14892;SDS011;7538;53.626;9.906;2023-07-30T11:11:15;8.68;;;3.03;;
14892;SDS011;7538;53.626;9.906;2023-07-30T11:13:43;7.53;;;2.63;;
14892;SDS011;7538;53.626;9.906;2023-07-30T11:16:11;6.32;;;2.72;;
14892;SDS011;7538;53.626;9.906;2023-07-30T11:18:39;5.15;;;2.70;;
14892;SDS011;7538;53.626;9.906;2023-07-30T11:21:09;7.63;;;2.97;;
14892;SDS011;7538;53.626;9.906;2023-07-30T11:23:37;6.63;;;2.88;;
14892;SDS011;7538;53.626;9.906;2023-07-30T11:26:05;6.13;;;2.83;;
14892;SDS011;7538;53.626;9.906;2023-07-30T11:28:33;5.70;;;2.33;;
14892;SDS011;7538;53.626;9.906;2023-07-30T11:31:01;6.38;;;2.50;;
14892;SDS011;7538;53.626;9.906;2023-07-30T11:33:31;7.47;;;2.78;;
14892;SDS011;7538;53.626;9.906;2023-07-30T11:36:00;6.22;;;2.30;;
14892;SDS011;7538;53.626;9.906;2023-07-30T11:38:29;5.75;;;3.15;;
14892;SDS011;7538;53.626;9.906;2023-07-30T11:40:57;5.97;;;2.70;;
14892;SDS011;7538;53.626;9.906;2023-07-30T11:43:25;7.30;;;2.72;;
14892;SDS011;7538;53.626;9.906;2023-07-30T11:46:05;6.43;;;2.63;;
14892;SDS011;7538;53.626;9.906;2023-07-30T11:48:33;6.57;;;3.47;;
14892;SDS011;7538;53.626;9.906;2023-07-30T11:51:00;9.07;;;3.28;;
14892;SDS011;7538;53.626;9.906;2023-07-30T11:56:15;4.68;;;2.50;;
14892;SDS011;7538;53.626;9.906;2023-07-30T11:58:53;6.40;;;2.63;;
14892;SDS011;7538;53.626;9.906;2023-07-30T12:01:23;4.82;;;2.00;;
14892;SDS011;7538;53.626;9.906;2023-07-30T12:03:53;3.70;;;2.00;;
14892;SDS011;7538;53.626;9.906;2023-07-30T12:06:20;8.10;;;2.55;;
14892;SDS011;7538;53.626;9.906;2023-07-30T12:08:49;6.47;;;2.80;;
14892;SDS011;7538;53.626;9.906;2023-07-30T12:11:17;6.38;;;2.70;;
14892;SDS011;7538;53.626;9.906;2023-07-30T12:13:45;6.03;;;2.70;;
14892;SDS011;7538;53.626;9.906;2023-07-30T12:16:15;5.20;;;2.85;;
14892;SDS011;7538;53.626;9.906;2023-07-30T12:18:42;5.20;;;2.20;;
14892;SDS011;7538;53.626;9.906;2023-07-30T12:21:08;7.30;;;2.60;;
14892;SDS011;7538;53.626;9.906;2023-07-30T12:23:36;5.70;;;2.65;;
14892;SDS011;7538;53.626;9.906;2023-07-30T12:26:04;4.75;;;2.30;;
14892;SDS011;7538;53.626;9.906;2023-07-30T12:28:32;5.97;;;2.38;;
14892;SDS011;7538;53.626;9.906;2023-07-30T12:30:59;8.50;;;2.75;;
14892;SDS011;7538;53.626;9.906;2023-07-30T12:33:26;6.13;;;2.80;;
14892;SDS011;7538;53.626;9.906;2023-07-30T12:35:53;5.30;;;2.70;;
14892;SDS011;7538;53.626;9.906;2023-07-30T12:38:20;4.45;;;2.42;;
14892;SDS011;7538;53.626;9.906;2023-07-30T12:40:46;8.82;;;2.72;;
14892;SDS011;7538;53.626;9.906;2023-07-30T12:43:14;9.23;;;2.78;;
14892;SDS011;7538;53.626;9.906;2023-07-30T12:45:44;7.72;;;2.75;;
14892;SDS011;7538;53.626;9.906;2023-07-30T12:48:10;4.45;;;2.40;;
14892;SDS011;7538;53.626;9.906;2023-07-30T12:50:37;7.50;;;2.85;;
14892;SDS011;7538;53.626;9.906;2023-07-30T12:53:04;8.88;;;3.50;;
14892;SDS011;7538;53.626;9.906;2023-07-30T12:55:31;7.15;;;2.95;;
14892;SDS011;7538;53.626;9.906;2023-07-30T12:57:57;8.85;;;3.28;;
14892;SDS011;7538;53.626;9.906;2023-07-30T13:00:26;7.72;;;3.10;;
14892;SDS011;7538;53.626;9.906;2023-07-30T13:02:53;5.43;;;3.00;;
14892;SDS011;7538;53.626;9.906;2023-07-30T13:05:22;7.50;;;3.25;;
14892;SDS011;7538;53.626;9.906;2023-07-30T13:07:49;6.97;;;3.17;;
14892;SDS011;7538;53.626;9.906;2023-07-30T13:10:16;6.55;;;3.47;;
14892;SDS011;7538;53.626;9.906;2023-07-30T13:12:43;6.53;;;3.00;;
14892;SDS011;7538;53.626;9.906;2023-07-30T13:15:09;6.97;;;2.63;;
14892;SDS011;7538;53.626;9.906;2023-07-30T13:17:38;5.00;;;2.15;;
14892;SDS011;7538;53.626;9.906;2023-07-30T13:20:05;4.82;;;2.30;;
14892;SDS011;7538;53.626;9.906;2023-07-30T13:22:33;5.32;;;2.60;;
14892;SDS011;7538;53.626;9.906;2023-07-30T13:25:00;4.35;;;2.35;;
14892;SDS011;7538;53.626;9.906;2023-07-30T13:27:26;5.10;;;2.55;;
14892;SDS011;7538;53.626;9.906;2023-07-30T13:29:53;5.10;;;2.33;;
14892;SDS011;7538;53.626;9.906;2023-07-30T13:32:20;6.20;;;3.00;;
14892;SDS011;7538;53.626;9.906;2023-07-30T13:34:48;5.88;;;2.70;;
14892;SDS011;7538;53.626;9.906;2023-07-30T13:37:15;4.18;;;2.10;;
14892;SDS011;7538;53.626;9.906;2023-07-30T13:39:41;5.05;;;2.33;;
14892;SDS011;7538;53.626;9.906;2023-07-30T13:42:08;6.28;;;2.45;;
14892;SDS011;7538;53.626;9.906;2023-07-30T13:44:35;4.85;;;2.45;;
14892;SDS011;7538;53.626;9.906;2023-07-30T13:47:02;4.38;;;2.40;;
14892;SDS011;7538;53.626;9.906;2023-07-30T13:49:29;4.85;;;2.20;;
14892;SDS011;7538;53.626;9.906;2023-07-30T13:51:57;7.45;;;2.60;;
14892;SDS011;7538;53.626;9.906;2023-07-30T13:54:23;4.72;;;2.35;;
14892;SDS011;7538;53.626;9.906;2023-07-30T13:56:50;3.20;;;2.40;;
14892;SDS011;7538;53.626;9.906;2023-07-30T13:59:17;5.13;;;2.40;;
14892;SDS011;7538;53.626;9.906;2023-07-30T14:01:44;4.40;;;2.65;;
14892;SDS011;7538;53.626;9.906;2023-07-30T14:04:10;4.13;;;2.35;;
14892;SDS011;7538;53.626;9.906;2023-07-30T14:06:37;4.43;;;2.50;;
14892;SDS011;7538;53.626;9.906;2023-07-30T14:09:05;2.97;;;2.33;;
14892;SDS011;7538;53.626;9.906;2023-07-30T14:11:32;4.47;;;2.45;;
14892;SDS011;7538;53.626;9.906;2023-07-30T14:13:59;4.32;;;2.08;;
14892;SDS011;7538;53.626;9.906;2023-07-30T14:16:26;3.40;;;2.10;;
14892;SDS011;7538;53.626;9.906;2023-07-30T14:18:53;4.25;;;2.05;;
14892;SDS011;7538;53.626;9.906;2023-07-30T14:21:19;4.07;;;1.98;;
14892;SDS011;7538;53.626;9.906;2023-07-30T14:23:46;4.80;;;2.47;;
14892;SDS011;7538;53.626;9.906;2023-07-30T14:26:14;3.00;;;2.03;;
14892;SDS011;7538;53.626;9.906;2023-07-30T14:28:41;3.15;;;1.98;;
14892;SDS011;7538;53.626;9.906;2023-07-30T14:31:08;3.50;;;1.80;;
14892;SDS011;7538;53.626;9.906;2023-07-30T14:33:34;2.95;;;1.98;;
14892;SDS011;7538;53.626;9.906;2023-07-30T14:36:01;3.97;;;1.90;;
14892;SDS011;7538;53.626;9.906;2023-07-30T14:38:29;3.63;;;1.85;;
14892;SDS011;7538;53.626;9.906;2023-07-30T14:40:56;4.35;;;2.00;;
14892;SDS011;7538;53.626;9.906;2023-07-30T14:43:25;3.47;;;1.75;;
14892;SDS011;7538;53.626;9.906;2023-07-30T14:45:51;4.65;;;2.17;;
14892;SDS011;7538;53.626;9.906;2023-07-30T14:48:18;3.22;;;2.08;;
14892;SDS011;7538;53.626;9.906;2023-07-30T14:50:45;2.63;;;2.00;;
14892;SDS011;7538;53.626;9.906;2023-07-30T14:53:12;4.40;;;1.77;;
14892;SDS011;7538;53.626;9.906;2023-07-30T14:55:39;3.60;;;1.90;;
14892;SDS011;7538;53.626;9.906;2023-07-30T14:58:05;4.35;;;2.50;;
14892;SDS011;7538;53.626;9.906;2023-07-30T15:00:35;4.25;;;1.92;;
14892;SDS011;7538;53.626;9.906;2023-07-30T15:03:02;4.43;;;1.88;;
14892;SDS011;7538;53.626;9.906;2023-07-30T15:05:29;3.05;;;2.13;;
14892;SDS011;7538;53.626;9.906;2023-07-30T15:07:57;2.97;;;1.85;;
14892;SDS011;7538;53.626;9.906;2023-07-30T15:10:23;3.88;;;1.70;;